createdAt,value
2017-09-04T00:08:08.811Z,15.95
2017-09-04T00:10:52.465Z,16.07
2017-09-04T00:13:46.493Z,16.06
2017-09-04T00:16:40.863Z,15.97
2017-09-04T00:19:35.541Z,15.85
2017-09-04T00:22:30.312Z,15.74
2017-09-04T00:30:53.075Z,15.69
2017-09-04T00:33:48.125Z,15.79
2017-09-04T00:36:37.505Z,15.79
2017-09-04T00:39:31.880Z,15.73
2017-09-04T00:42:26.529Z,15.65
2017-09-04T00:45:21.291Z,15.54
2017-09-04T00:55:03.005Z,15.58
2017-09-04T00:57:46.751Z,15.70
2017-09-04T01:00:40.704Z,15.68
2017-09-04T01:03:35.150Z,15.59
2017-09-04T01:06:29.813Z,15.48
2017-09-04T01:20:25.482Z,15.47
2017-09-04T01:23:09.187Z,15.57
2017-09-04T01:26:02.860Z,15.54
2017-09-04T01:28:57.301Z,15.45
2017-09-04T01:31:51.792Z,15.34
2017-09-04T01:42:07.284Z,15.40
2017-09-04T01:44:50.768Z,15.51
2017-09-04T01:47:44.621Z,15.49
2017-09-04T01:53:33.855Z,15.29
2017-09-04T02:02:07.652Z,15.20
2017-09-04T02:04:51.297Z,15.30
2017-09-04T02:07:45.260Z,15.27
2017-09-04T02:10:39.803Z,15.18
2017-09-04T02:16:57.818Z,15.03
2017-09-04T02:19:41.848Z,15.09
2017-09-04T02:22:35.898Z,15.06
2017-09-04T02:25:30.599Z,14.98
2017-09-04T02:28:25.251Z,14.88
2017-09-04T02:41:46.796Z,15.09
2017-09-04T02:44:40.521Z,15.07
2017-09-04T02:47:34.957Z,14.97
2017-09-04T02:50:29.555Z,14.86
2017-09-04T02:53:24.103Z,14.76
2017-09-04T03:04:02.081Z,14.83
2017-09-04T03:06:45.618Z,14.93
2017-09-04T03:09:39.435Z,14.91
2017-09-04T03:12:33.701Z,14.82
2017-09-04T03:21:41.153Z,14.74
2017-09-04T03:24:24.844Z,14.83
2017-09-04T03:27:18.664Z,14.81
2017-09-04T03:30:58.244Z,14.69
2017-09-04T03:33:55.380Z,14.61
2017-09-04T03:41:27.472Z,14.55
2017-09-04T03:44:11.184Z,14.64
2017-09-04T03:47:05.188Z,14.60
2017-09-04T03:58:34.658Z,14.50
2017-09-04T04:01:18.352Z,14.57
2017-09-04T04:04:12.243Z,14.55
2017-09-04T04:07:06.555Z,14.46
2017-09-04T04:18:18.409Z,14.54
2017-09-04T04:21:01.917Z,14.63
2017-09-04T04:23:55.717Z,14.60
2017-09-04T04:37:34.327Z,14.76
2017-09-04T04:40:17.717Z,14.83
2017-09-04T04:43:11.378Z,14.79
2017-09-04T04:53:49.020Z,14.73
2017-09-04T04:56:32.551Z,14.80
2017-09-04T05:11:52.184Z,15.00
2017-09-04T05:14:35.575Z,15.05
2017-09-04T05:39:54.168Z,15.51
2017-09-04T05:43:11.688Z,15.53
2017-09-04T05:58:57.239Z,15.67
2017-09-04T06:01:40.680Z,15.73
2017-09-04T06:26:47.956Z,16.48
2017-09-04T06:29:31.499Z,16.56
2017-09-04T06:32:25.337Z,16.55
2017-09-04T06:35:19.686Z,16.48
2017-09-04T06:48:24.525Z,16.81
2017-09-04T06:54:02.156Z,17.20
2017-09-04T06:56:56.630Z,16.95
2017-09-04T06:59:51.354Z,16.88
2017-09-04T07:03:20.217Z,16.81
2017-09-04T07:06:41.029Z,16.80
2017-09-04T07:09:27.852Z,16.81
2017-09-04T07:18:46.832Z,17.13
2017-09-04T07:21:30.702Z,17.33
2017-09-04T07:24:24.803Z,17.39
2017-09-04T07:27:19.466Z,17.40
2017-09-04T07:30:14.313Z,17.39
2017-09-04T07:33:09.247Z,17.38
2017-09-04T07:36:04.253Z,17.38
2017-09-04T07:41:54.275Z,17.38
2017-09-04T07:44:49.266Z,17.40
2017-09-04T07:47:44.264Z,17.41
2017-09-04T07:50:39.276Z,17.42
2017-09-04T07:53:34.273Z,17.43
2017-09-04T07:56:29.268Z,17.46
2017-09-04T07:59:24.314Z,17.49
2017-09-04T08:02:19.311Z,17.52
2017-09-04T08:05:14.409Z,17.57
2017-09-04T08:08:09.429Z,17.63
2017-09-04T08:11:04.639Z,17.69
2017-09-04T08:13:59.677Z,17.75
2017-09-04T08:16:54.785Z,17.81
2017-09-04T08:19:49.842Z,17.88
2017-09-04T08:22:44.909Z,17.94
2017-09-04T08:25:40.052Z,18.00
2017-09-04T08:28:35.267Z,18.06
2017-09-04T08:31:30.384Z,18.13
2017-09-04T08:34:25.444Z,18.20
2017-09-04T08:37:20.596Z,18.29
2017-09-04T08:40:15.750Z,18.37
2017-09-04T08:43:10.751Z,18.44
2017-09-04T08:46:05.917Z,18.54
2017-09-04T08:51:56.115Z,18.74
2017-09-04T08:54:51.187Z,18.83
2017-09-04T08:57:46.307Z,18.94
2017-09-04T09:00:41.604Z,19.08
2017-09-04T09:03:36.859Z,19.24
2017-09-04T09:06:32.175Z,19.43
2017-09-04T09:09:27.443Z,19.62
2017-09-04T09:12:22.746Z,19.81
2017-09-04T09:15:18.183Z,20.05
2017-09-04T09:18:13.823Z,20.31
2017-09-04T09:21:09.596Z,20.60
2017-09-04T09:24:05.260Z,20.90
2017-09-04T09:27:00.959Z,21.23
2017-09-04T09:29:56.747Z,21.52
2017-09-04T09:32:52.580Z,21.82
2017-09-04T09:35:48.347Z,22.12
2017-09-04T09:38:44.018Z,22.41
2017-09-04T09:41:39.756Z,22.73
2017-09-04T09:44:35.772Z,23.01
2017-09-04T09:47:31.539Z,23.27
2017-09-04T09:50:27.353Z,23.55
2017-09-04T09:53:23.204Z,23.85
2017-09-04T09:56:19.371Z,24.11
2017-09-04T09:59:15.581Z,24.37
2017-09-04T10:02:11.622Z,24.62
2017-09-04T10:05:07.816Z,24.88
2017-09-04T10:08:03.972Z,25.14
2017-09-04T10:13:56.527Z,25.66
2017-09-04T10:16:52.752Z,25.88
2017-09-04T10:19:48.969Z,26.11
2017-09-04T10:22:45.123Z,26.24
2017-09-04T10:25:41.279Z,26.39
2017-09-04T10:28:37.451Z,26.54
2017-09-04T10:31:33.623Z,26.64
2017-09-04T10:37:25.471Z,26.63
2017-09-04T10:40:21.201Z,26.50
2017-09-04T10:43:16.949Z,26.35
2017-09-04T10:46:12.632Z,26.12
2017-09-04T10:49:08.336Z,25.81
2017-09-04T10:52:04.058Z,25.51
2017-09-04T10:54:59.842Z,25.24
2017-09-04T10:57:55.555Z,25.00
2017-09-04T11:00:51.321Z,24.75
2017-09-04T11:03:47.074Z,24.51
2017-09-04T11:06:42.873Z,24.30
2017-09-04T11:09:38.540Z,24.15
2017-09-04T11:12:34.324Z,23.98
2017-09-04T11:15:29.891Z,23.79
2017-09-04T11:18:25.735Z,23.60
2017-09-04T11:21:21.475Z,23.45
2017-09-04T11:24:17.053Z,23.29
2017-09-04T11:27:12.561Z,23.14
2017-09-04T11:30:08.392Z,23.04
2017-09-04T11:33:03.987Z,22.92
2017-09-04T11:35:59.545Z,22.81
2017-09-04T11:38:55.081Z,22.71
2017-09-04T11:41:50.655Z,22.60
2017-09-04T11:44:46.163Z,22.53
2017-09-04T11:47:41.767Z,22.43
2017-09-04T11:53:33.124Z,22.29
2017-09-04T11:56:28.721Z,22.22
2017-09-04T11:59:24.334Z,22.15
2017-09-04T12:05:15.532Z,22.01
2017-09-04T12:08:11.007Z,21.95
2017-09-04T12:11:06.444Z,21.92
2017-09-04T12:14:01.970Z,21.87
2017-09-04T12:16:57.418Z,21.82
2017-09-04T12:19:52.950Z,21.76
2017-09-04T12:22:48.850Z,21.70
2017-09-04T12:25:44.323Z,21.65
2017-09-04T12:28:39.821Z,21.60
2017-09-04T12:31:35.233Z,21.55
2017-09-04T12:34:30.698Z,21.51
2017-09-04T12:37:26.224Z,21.47
2017-09-04T12:40:21.509Z,21.42
2017-09-04T12:43:17.055Z,21.39
2017-09-04T12:46:12.542Z,21.36
2017-09-04T12:49:08.147Z,21.32
2017-09-04T12:52:03.597Z,21.31
2017-09-04T12:54:59.009Z,21.31
2017-09-04T12:57:54.330Z,21.29
2017-09-04T13:00:49.754Z,21.27
2017-09-04T13:03:45.164Z,21.25
2017-09-04T13:06:40.503Z,21.22
2017-09-04T13:09:35.790Z,21.20
2017-09-04T13:12:31.085Z,21.18
2017-09-04T13:15:26.404Z,21.16
2017-09-04T13:18:21.701Z,21.13
2017-09-04T13:21:16.925Z,21.09
2017-09-04T13:24:12.143Z,21.07
2017-09-04T13:27:07.339Z,21.03
2017-09-04T13:30:02.522Z,21.01
2017-09-04T13:32:57.717Z,20.99
2017-09-04T13:38:47.962Z,20.94
2017-09-04T13:41:43.161Z,20.92
2017-09-04T13:44:38.301Z,20.89
2017-09-04T13:47:33.484Z,20.88
2017-09-04T13:50:28.652Z,20.86
2017-09-04T13:53:23.841Z,20.84
2017-09-04T13:56:19.037Z,20.83
2017-09-04T13:59:14.345Z,20.84
2017-09-04T14:02:09.538Z,20.83
2017-09-04T14:05:04.662Z,20.83
2017-09-04T14:08:00.048Z,20.83
2017-09-04T14:10:55.048Z,20.83
2017-09-04T14:13:50.270Z,20.83
2017-09-04T14:16:45.332Z,20.83
2017-09-04T14:19:40.528Z,20.84
2017-09-04T14:22:35.607Z,20.83
2017-09-04T14:25:30.662Z,20.85
2017-09-04T14:28:25.834Z,20.87
2017-09-04T14:31:20.962Z,20.89
2017-09-04T14:34:16.097Z,20.90
2017-09-04T14:37:11.208Z,20.90
2017-09-04T14:40:06.311Z,20.91
2017-09-04T14:43:01.393Z,20.91
2017-09-04T14:45:56.525Z,20.92
2017-09-04T14:48:51.650Z,20.92
2017-09-04T14:51:46.906Z,20.93
2017-09-04T14:54:42.094Z,20.94
2017-09-04T14:57:37.298Z,20.95
2017-09-04T15:00:32.479Z,20.96
2017-09-04T15:03:27.613Z,20.96
2017-09-04T15:06:22.760Z,20.98
2017-09-04T15:09:17.948Z,20.97
2017-09-04T15:12:13.125Z,20.96
2017-09-04T15:15:08.224Z,20.97
2017-09-04T15:18:03.480Z,20.97
2017-09-04T15:20:58.602Z,20.97
2017-09-04T15:23:53.775Z,20.97
2017-09-04T15:26:48.916Z,20.96
2017-09-04T15:29:44.035Z,20.95
2017-09-04T15:32:39.101Z,20.94
2017-09-04T15:35:34.171Z,20.92
2017-09-04T15:38:29.390Z,20.91
2017-09-04T15:41:24.648Z,20.89
2017-09-04T15:44:19.920Z,20.88
2017-09-04T15:47:15.065Z,20.88
2017-09-04T15:50:10.243Z,20.87
2017-09-04T15:53:05.404Z,20.87
2017-09-04T15:56:00.592Z,20.86
2017-09-04T15:58:55.802Z,20.85
2017-09-04T16:01:51.199Z,20.84
2017-09-04T16:04:46.350Z,20.82
2017-09-04T16:07:41.476Z,20.81
2017-09-04T16:10:36.638Z,20.81
2017-09-04T16:13:31.716Z,20.80
2017-09-04T16:19:22.062Z,20.79
2017-09-04T16:22:17.251Z,20.77
2017-09-04T16:25:12.504Z,20.75
2017-09-04T16:28:07.648Z,20.74
2017-09-04T16:33:57.971Z,20.70
2017-09-04T16:36:53.166Z,20.68
2017-09-04T16:39:48.391Z,20.67
2017-09-04T16:42:43.502Z,20.65
2017-09-04T16:45:38.642Z,20.64
2017-09-04T16:48:33.864Z,20.63
2017-09-04T16:51:28.948Z,20.62
2017-09-04T16:54:24.077Z,20.60
2017-09-04T16:57:19.292Z,20.58
2017-09-04T17:00:14.460Z,20.56
2017-09-04T17:03:09.667Z,20.55
2017-09-04T17:06:04.855Z,20.53
2017-09-04T17:09:00.064Z,20.51
2017-09-04T17:11:55.235Z,20.49
2017-09-04T17:14:50.465Z,20.47
2017-09-04T17:17:45.635Z,20.44
2017-09-04T17:20:40.888Z,20.41
2017-09-04T17:23:36.025Z,20.39
2017-09-04T17:26:31.183Z,20.37
2017-09-04T17:29:26.279Z,20.33
2017-09-04T17:32:21.381Z,20.30
2017-09-04T17:35:16.574Z,20.26
2017-09-04T17:38:11.737Z,20.22
2017-09-04T17:41:06.757Z,20.18
2017-09-04T17:44:01.944Z,20.14
2017-09-04T17:49:52.216Z,20.06
2017-09-04T17:55:42.403Z,19.98
2017-09-04T17:58:37.571Z,19.93
2017-09-04T18:01:32.633Z,19.88
2017-09-04T18:04:27.794Z,19.83
2017-09-04T18:07:22.965Z,19.79
2017-09-04T18:13:13.288Z,19.69
2017-09-04T18:16:08.470Z,19.65
2017-09-04T18:19:03.511Z,19.60
2017-09-04T18:21:58.667Z,19.55
2017-09-04T18:24:53.689Z,19.50
2017-09-04T18:27:48.824Z,19.45
2017-09-04T18:30:43.972Z,19.40
2017-09-04T18:33:39.085Z,19.35
2017-09-04T18:36:34.189Z,19.29
2017-09-04T18:39:29.159Z,19.24
2017-09-04T18:42:24.393Z,19.19
2017-09-04T18:45:19.337Z,19.13
2017-09-04T18:48:14.344Z,19.09
2017-09-04T18:51:09.366Z,19.04
2017-09-04T18:54:04.457Z,19.00
2017-09-04T18:56:59.507Z,18.95
2017-09-04T18:59:54.586Z,18.90
2017-09-04T19:02:49.697Z,18.84
2017-09-04T19:05:44.673Z,18.79
2017-09-04T19:08:39.739Z,18.74
2017-09-04T19:11:34.851Z,18.70
2017-09-04T19:14:30.125Z,18.65
2017-09-04T19:17:25.319Z,18.62
2017-09-04T19:20:20.497Z,18.57
2017-09-04T19:23:15.724Z,18.53
2017-09-04T19:26:10.865Z,18.49
2017-09-04T19:29:06.055Z,18.45
2017-09-04T19:32:01.141Z,18.42
2017-09-04T19:34:56.339Z,18.38
2017-09-04T19:37:51.578Z,18.35
2017-09-04T19:40:46.574Z,18.32
2017-09-04T19:43:41.663Z,18.29
2017-09-04T19:46:36.846Z,18.25
2017-09-04T19:49:32.007Z,18.21
2017-09-04T19:52:27.068Z,18.16
2017-09-04T19:55:22.207Z,18.12
2017-09-04T19:58:17.232Z,18.08
2017-09-04T20:01:12.380Z,18.04
2017-09-04T20:04:07.523Z,17.99
2017-09-04T20:07:02.605Z,17.94
2017-09-04T20:09:57.787Z,17.89
2017-09-04T20:12:52.665Z,17.83
2017-09-04T20:15:47.676Z,17.80
2017-09-04T20:18:42.717Z,17.77
2017-09-04T20:21:37.778Z,17.73
2017-09-04T20:24:32.881Z,17.68
2017-09-04T20:30:22.991Z,17.59
2017-09-04T20:33:18.038Z,17.56
2017-09-04T20:36:13.003Z,17.52
2017-09-04T20:39:07.961Z,17.49
2017-09-04T20:42:02.892Z,17.47
2017-09-04T20:44:57.793Z,17.43
2017-09-04T20:47:52.743Z,17.39
2017-09-04T20:50:47.758Z,17.35
2017-09-04T20:53:42.671Z,17.32
2017-09-04T20:56:37.577Z,17.29
2017-09-04T20:59:32.579Z,17.26
2017-09-04T21:02:27.573Z,17.22
2017-09-04T21:05:22.531Z,17.19
2017-09-04T21:08:18.039Z,17.16
2017-09-04T21:11:13.007Z,17.12
2017-09-04T21:14:07.975Z,17.09
2017-09-04T21:17:02.922Z,17.06
2017-09-04T21:19:57.788Z,17.03
2017-09-04T21:22:52.737Z,16.99
2017-09-04T21:25:47.714Z,16.96
2017-09-04T21:28:42.603Z,16.94
2017-09-04T21:31:37.509Z,16.91
2017-09-04T21:34:32.440Z,16.88
2017-09-04T21:37:27.336Z,16.85
2017-09-04T21:40:22.220Z,16.82
2017-09-04T21:43:17.151Z,16.79
2017-09-04T21:46:12.165Z,16.76
2017-09-04T21:49:07.058Z,16.74
2017-09-04T21:52:02.005Z,16.71
2017-09-04T21:54:57.146Z,16.68
2017-09-04T21:57:52.258Z,16.64
2017-09-04T22:00:47.166Z,16.62
2017-09-04T22:03:41.971Z,16.59
2017-09-04T22:06:36.805Z,16.55
2017-09-04T22:09:31.894Z,16.52
2017-09-04T22:12:26.846Z,16.49
2017-09-04T22:15:21.789Z,16.47
2017-09-04T22:18:16.700Z,16.44
2017-09-04T22:21:11.660Z,16.42
2017-09-04T22:24:06.614Z,16.37
2017-09-04T22:27:01.506Z,16.34
2017-09-04T22:29:56.462Z,16.32
2017-09-04T22:32:51.449Z,16.30
2017-09-04T22:35:46.323Z,16.26
2017-09-04T22:38:41.165Z,16.23
2017-09-04T22:41:36.153Z,16.20
2017-09-04T22:44:31.070Z,16.18
2017-09-04T22:47:25.994Z,16.17
2017-09-04T22:50:21.005Z,16.15
2017-09-04T22:53:16.042Z,16.12
2017-09-04T22:56:10.869Z,16.10
2017-09-04T22:59:05.671Z,16.08
2017-09-04T23:02:00.588Z,16.05
2017-09-04T23:04:55.576Z,16.02
2017-09-04T23:07:50.551Z,16.00
2017-09-04T23:10:45.421Z,15.98
2017-09-04T23:13:40.310Z,15.97
2017-09-04T23:16:35.216Z,15.95
2017-09-04T23:19:30.053Z,15.93
2017-09-04T23:22:24.930Z,15.91
2017-09-04T23:25:19.929Z,15.88
2017-09-04T23:28:15.012Z,15.86
2017-09-04T23:31:10.000Z,15.84
2017-09-04T23:34:04.870Z,15.83
2017-09-04T23:37:00.255Z,15.81
2017-09-04T23:39:55.225Z,15.78
2017-09-04T23:42:49.970Z,15.76
2017-09-04T23:45:44.712Z,15.74
2017-09-04T23:48:39.649Z,15.71
2017-09-04T23:51:34.505Z,15.69
2017-09-04T23:54:29.261Z,15.66
2017-09-04T23:57:24.258Z,15.64
